createdAt,value
2019-02-19T00:01:10.403Z,80.87
2019-02-19T00:03:40.660Z,80.88
2019-02-19T00:06:11.113Z,80.84
2019-02-19T00:08:41.401Z,80.87
2019-02-19T00:11:11.642Z,80.89
2019-02-19T00:13:41.885Z,80.90
2019-02-19T00:16:12.259Z,80.90
2019-02-19T00:18:42.527Z,80.88
2019-02-19T00:21:12.580Z,80.89
2019-02-19T00:23:42.930Z,80.80
2019-02-19T00:26:14.294Z,80.74
2019-02-19T00:28:44.566Z,80.73
2019-02-19T00:31:14.850Z,80.90
2019-02-19T00:33:45.189Z,80.99
2019-02-19T00:36:15.424Z,81.12
2019-02-19T00:38:45.615Z,81.22
2019-02-19T00:41:15.928Z,81.28
2019-02-19T00:43:46.073Z,81.42
2019-02-19T00:46:16.316Z,81.53
2019-02-19T00:48:46.494Z,81.61
2019-02-19T00:51:16.735Z,81.63
2019-02-19T00:53:46.971Z,81.71
2019-02-19T00:56:17.057Z,81.75
2019-02-19T00:58:50.146Z,81.81
2019-02-19T01:01:20.420Z,81.90
2019-02-19T01:03:50.640Z,82.01
2019-02-19T01:06:21.064Z,82.17
2019-02-19T01:08:51.336Z,82.15
2019-02-19T01:11:21.601Z,82.21
2019-02-19T01:13:52.150Z,82.25
2019-02-19T01:16:22.461Z,82.25
2019-02-19T01:18:54.228Z,82.32
2019-02-19T01:21:24.535Z,82.35
2019-02-19T01:23:54.858Z,82.42
2019-02-19T01:26:25.108Z,82.44
2019-02-19T01:28:55.277Z,82.50
2019-02-19T01:31:25.554Z,82.53
2019-02-19T01:33:55.774Z,82.56
2019-02-19T01:36:25.854Z,82.55
2019-02-19T01:38:56.094Z,82.54
2019-02-19T01:41:26.342Z,82.57
2019-02-19T01:43:56.675Z,82.64
2019-02-19T01:46:27.007Z,82.65
2019-02-19T01:48:57.254Z,82.63
2019-02-19T01:51:27.511Z,82.64
2019-02-19T01:53:57.733Z,82.65
2019-02-19T01:56:27.953Z,82.73
2019-02-19T01:58:58.337Z,82.72
2019-02-19T02:01:28.509Z,82.75
2019-02-19T02:03:58.785Z,82.74
2019-02-19T02:06:28.946Z,82.74
2019-02-19T02:08:59.109Z,82.72
2019-02-19T02:11:29.393Z,82.72
2019-02-19T02:13:59.522Z,82.70
2019-02-19T02:16:29.624Z,82.75
2019-02-19T02:18:59.786Z,82.82
2019-02-19T02:21:38.872Z,82.84
2019-02-19T02:24:09.131Z,82.85
2019-02-19T02:26:43.859Z,82.88
2019-02-19T02:29:14.020Z,82.92
2019-02-19T02:31:44.189Z,83.06
2019-02-19T02:34:14.415Z,83.12
2019-02-19T02:36:44.571Z,83.22
2019-02-19T02:39:14.814Z,83.24
2019-02-19T02:41:45.074Z,83.25
2019-02-19T02:44:15.135Z,83.29
2019-02-19T02:46:45.278Z,83.30
2019-02-19T02:49:15.525Z,83.30
2019-02-19T02:51:46.240Z,83.36
2019-02-19T02:54:16.505Z,83.41
2019-02-19T02:56:46.829Z,83.47
2019-02-19T02:59:16.892Z,83.53
2019-02-19T03:01:47.272Z,83.55
2019-02-19T03:04:17.508Z,83.55
2019-02-19T03:06:55.407Z,83.55
2019-02-19T03:09:25.648Z,83.62
2019-02-19T03:11:55.784Z,83.62
2019-02-19T03:14:25.983Z,83.56
2019-02-19T03:16:56.163Z,83.55
2019-02-19T03:19:26.365Z,83.58
2019-02-19T03:21:56.515Z,83.63
2019-02-19T03:24:26.657Z,83.63
2019-02-19T03:26:56.828Z,83.62
2019-02-19T03:29:26.979Z,83.64
2019-02-19T03:31:57.210Z,83.69
2019-02-19T03:34:27.354Z,83.72
2019-02-19T03:36:57.479Z,83.77
2019-02-19T03:39:27.733Z,83.82
2019-02-19T03:41:57.920Z,83.74
2019-02-19T03:44:28.170Z,83.70
2019-02-19T03:46:58.395Z,83.74
2019-02-19T03:49:28.583Z,83.76
2019-02-19T03:51:58.751Z,83.78
2019-02-19T03:54:29.011Z,83.82
2019-02-19T03:56:59.260Z,83.82
2019-02-19T03:59:29.475Z,83.88
2019-02-19T04:01:59.788Z,83.92
2019-02-19T04:04:30.040Z,83.90
2019-02-19T04:07:00.382Z,83.82
2019-02-19T04:09:30.792Z,83.98
2019-02-19T04:12:01.053Z,84.04
2019-02-19T04:14:31.593Z,83.98
2019-02-19T04:17:03.378Z,84.00
2019-02-19T04:19:38.414Z,84.08
2019-02-19T04:22:08.955Z,84.11
2019-02-19T04:24:39.269Z,84.03
2019-02-19T04:27:09.594Z,84.05
2019-02-19T04:29:39.834Z,84.01
2019-02-19T04:32:12.295Z,84.06
2019-02-19T04:34:42.409Z,84.06
2019-02-19T04:37:13.565Z,84.09
2019-02-19T04:39:43.822Z,84.15
2019-02-19T04:42:14.175Z,84.18
2019-02-19T04:44:44.379Z,84.12
2019-02-19T04:47:14.570Z,84.05
2019-02-19T04:49:44.796Z,84.07
2019-02-19T04:52:14.977Z,84.10
2019-02-19T04:54:45.369Z,84.09
2019-02-19T04:57:15.611Z,84.18
2019-02-19T04:59:48.880Z,84.24
2019-02-19T05:02:20.408Z,84.23
2019-02-19T05:04:53.353Z,84.32
2019-02-19T05:07:23.660Z,84.37
2019-02-19T05:09:53.836Z,84.40
2019-02-19T05:12:24.041Z,84.40
2019-02-19T05:14:54.261Z,84.42
2019-02-19T05:17:24.556Z,84.41
2019-02-19T05:19:54.976Z,84.41
2019-02-19T05:22:25.441Z,84.54
2019-02-19T05:24:56.088Z,84.51
2019-02-19T05:27:31.995Z,84.56
2019-02-19T05:30:02.720Z,84.59
2019-02-19T05:32:33.305Z,84.60
2019-02-19T05:35:03.916Z,84.66
2019-02-19T05:37:34.465Z,84.72
2019-02-19T05:40:05.463Z,84.77
2019-02-19T05:42:36.021Z,84.76
2019-02-19T05:45:16.616Z,84.82
2019-02-19T05:47:51.915Z,84.87
2019-02-19T05:50:34.157Z,84.87
2019-02-19T05:53:04.671Z,84.94
2019-02-19T05:55:35.120Z,84.94
2019-02-19T05:58:05.719Z,84.97
2019-02-19T06:00:36.356Z,85.02
2019-02-19T06:03:07.036Z,84.96
2019-02-19T06:05:37.913Z,84.88
2019-02-19T06:08:08.840Z,84.86
2019-02-19T06:10:39.344Z,84.88
2019-02-19T06:13:09.830Z,84.97
2019-02-19T06:15:40.631Z,85.07
2019-02-19T06:18:11.275Z,85.15
2019-02-19T06:20:41.889Z,85.09
2019-02-19T06:23:12.429Z,85.13
2019-02-19T06:25:42.949Z,85.03
2019-02-19T06:28:13.507Z,85.03
2019-02-19T06:30:44.118Z,85.14
2019-02-19T06:33:17.388Z,85.21
2019-02-19T06:35:47.955Z,85.12
2019-02-19T06:38:18.476Z,85.11
2019-02-19T06:40:48.993Z,85.05
2019-02-19T06:43:19.166Z,85.20
2019-02-19T06:45:49.424Z,85.31
2019-02-19T06:48:19.820Z,85.42
2019-02-19T06:50:50.122Z,85.44
2019-02-19T06:53:20.339Z,85.47
2019-02-19T06:55:53.360Z,85.45
2019-02-19T06:58:23.664Z,85.50
2019-02-19T07:00:53.810Z,85.44
2019-02-19T07:03:42.930Z,85.42
2019-02-19T07:06:13.181Z,85.46
2019-02-19T07:08:43.328Z,85.45
2019-02-19T07:11:13.488Z,85.53
2019-02-19T07:13:43.781Z,85.55
2019-02-19T07:16:14.067Z,85.53
2019-02-19T07:18:44.501Z,85.50
2019-02-19T07:21:17.147Z,85.54
2019-02-19T07:23:50.327Z,85.50
2019-02-19T07:26:20.891Z,85.52
2019-02-19T07:28:51.230Z,85.49
2019-02-19T07:31:21.497Z,85.46
2019-02-19T07:33:51.705Z,85.42
2019-02-19T07:36:22.071Z,85.40
2019-02-19T07:38:54.969Z,85.43
2019-02-19T07:41:25.147Z,85.34
2019-02-19T07:43:55.469Z,85.29
2019-02-19T07:46:25.665Z,85.16
2019-02-19T07:48:55.866Z,84.97
2019-02-19T07:51:26.208Z,84.75
2019-02-19T07:53:56.384Z,84.59
2019-02-19T07:56:26.651Z,84.40
2019-02-19T07:58:56.882Z,84.19
2019-02-19T08:01:27.049Z,84.03
2019-02-19T08:03:57.213Z,83.91
2019-02-19T08:06:27.449Z,83.89
2019-02-19T08:08:57.737Z,83.81
2019-02-19T08:11:28.023Z,83.70
2019-02-19T08:13:58.234Z,83.72
2019-02-19T08:16:31.161Z,83.65
2019-02-19T08:19:01.597Z,83.58
2019-02-19T08:21:31.778Z,83.61
2019-02-19T08:24:02.054Z,83.42
2019-02-19T08:26:32.296Z,83.24
2019-02-19T08:29:13.057Z,83.28
2019-02-19T08:31:34.667Z,83.24
2019-02-19T08:34:04.837Z,83.16
2019-02-19T08:36:35.002Z,83.09
2019-02-19T08:39:06.072Z,83.02
2019-02-19T08:41:36.403Z,82.88
2019-02-19T08:44:08.437Z,82.75
2019-02-19T08:46:38.835Z,82.58
2019-02-19T08:49:08.987Z,82.56
2019-02-19T08:51:39.163Z,82.52
2019-02-19T08:54:10.722Z,82.38
2019-02-19T08:56:41.111Z,82.25
2019-02-19T08:59:18.599Z,82.16
2019-02-19T09:01:49.043Z,81.98
2019-02-19T09:04:20.544Z,81.73
2019-02-19T09:06:50.995Z,81.63
2019-02-19T09:09:21.475Z,81.52
2019-02-19T09:11:51.786Z,81.16
2019-02-19T09:14:22.083Z,81.09
2019-02-19T09:16:52.259Z,81.03
2019-02-19T09:19:22.416Z,80.84
2019-02-19T09:21:52.593Z,80.83
2019-02-19T09:24:22.916Z,80.69
2019-02-19T09:26:53.091Z,80.62
2019-02-19T09:29:23.608Z,80.68
2019-02-19T09:32:04.073Z,80.88
2019-02-19T09:34:34.229Z,81.01
2019-02-19T09:37:04.520Z,80.83
2019-02-19T09:39:36.743Z,80.54
2019-02-19T09:42:06.996Z,80.30
2019-02-19T09:44:37.234Z,80.18
2019-02-19T09:47:07.452Z,80.08
2019-02-19T09:49:37.718Z,79.84
2019-02-19T09:52:08.248Z,79.79
2019-02-19T09:54:38.461Z,79.59
2019-02-19T09:57:08.871Z,79.10
2019-02-19T09:59:39.066Z,79.06
2019-02-19T10:02:09.343Z,79.08
2019-02-19T10:04:39.591Z,79.04
2019-02-19T10:07:09.797Z,78.84
2019-02-19T10:09:40.077Z,78.61
2019-02-19T10:12:10.218Z,78.58
2019-02-19T10:14:40.422Z,78.59
2019-02-19T10:17:10.758Z,78.53
2019-02-19T10:19:41.028Z,78.49
2019-02-19T10:22:11.199Z,78.38
2019-02-19T10:24:41.377Z,78.11
2019-02-19T10:27:11.981Z,78.07
2019-02-19T10:29:42.186Z,78.02
2019-02-19T10:32:12.503Z,77.80
2019-02-19T10:34:43.256Z,77.42
2019-02-19T10:37:16.317Z,77.63
2019-02-19T10:39:46.408Z,77.83
2019-02-19T10:42:16.706Z,78.30
2019-02-19T10:44:47.135Z,78.63
2019-02-19T10:47:17.270Z,78.77
2019-02-19T10:49:47.475Z,78.78
2019-02-19T10:52:17.795Z,78.77
2019-02-19T10:54:47.950Z,78.71
2019-02-19T10:57:18.361Z,78.53
2019-02-19T10:59:54.785Z,78.50
2019-02-19T11:02:28.292Z,78.31
2019-02-19T11:04:58.457Z,78.27
2019-02-19T11:07:28.635Z,78.24
2019-02-19T11:09:58.957Z,78.04
2019-02-19T11:12:29.112Z,77.81
2019-02-19T11:14:59.391Z,77.72
2019-02-19T11:17:29.642Z,77.77
2019-02-19T11:19:59.934Z,77.74
2019-02-19T11:22:30.230Z,77.68
2019-02-19T11:25:00.410Z,77.60
2019-02-19T11:27:30.616Z,77.77
2019-02-19T11:30:00.837Z,77.93
2019-02-19T11:32:31.048Z,78.37
2019-02-19T11:35:01.296Z,78.79
2019-02-19T11:37:31.465Z,79.00
2019-02-19T11:40:01.563Z,79.00
2019-02-19T11:42:31.747Z,79.07
2019-02-19T11:45:01.924Z,79.13
2019-02-19T11:47:32.204Z,79.08
2019-02-19T11:50:02.665Z,79.22
2019-02-19T11:52:35.594Z,79.25
2019-02-19T11:55:07.920Z,79.24
2019-02-19T11:57:38.207Z,79.16
2019-02-19T12:00:11.925Z,79.23
2019-02-19T12:02:42.187Z,79.27
2019-02-19T12:05:12.723Z,79.27
2019-02-19T12:07:42.997Z,79.18
2019-02-19T12:10:13.267Z,79.23
2019-02-19T12:12:43.722Z,79.29
2019-02-19T12:15:14.148Z,79.40
2019-02-19T12:17:44.371Z,79.41
2019-02-19T12:20:14.719Z,79.26
2019-02-19T12:22:44.957Z,79.18
2019-02-19T12:25:15.394Z,79.07
2019-02-19T12:27:45.652Z,79.03
2019-02-19T12:30:16.241Z,79.01
2019-02-19T12:32:48.551Z,79.00
2019-02-19T12:35:18.809Z,78.99
2019-02-19T12:37:49.163Z,78.99
2019-02-19T12:40:19.380Z,78.96
2019-02-19T12:42:49.601Z,78.87
2019-02-19T12:45:19.834Z,78.84
2019-02-19T12:47:50.040Z,78.83
2019-02-19T12:50:20.276Z,78.82
2019-02-19T12:52:50.700Z,78.78
2019-02-19T12:55:20.885Z,78.73
2019-02-19T12:57:50.995Z,78.71
2019-02-19T13:00:24.472Z,78.84
2019-02-19T13:02:54.693Z,79.03
2019-02-19T13:05:27.010Z,79.38
2019-02-19T13:07:57.439Z,79.54
2019-02-19T13:10:27.724Z,79.67
2019-02-19T13:12:57.941Z,79.84
2019-02-19T13:15:28.148Z,79.95
2019-02-19T13:17:58.387Z,80.04
2019-02-19T13:20:28.672Z,79.99
2019-02-19T13:22:58.988Z,79.94
2019-02-19T13:25:30.683Z,79.89
2019-02-19T13:28:00.905Z,79.76
2019-02-19T13:30:31.250Z,79.72
2019-02-19T13:33:01.387Z,79.65
2019-02-19T13:35:31.763Z,79.62
2019-02-19T13:38:02.043Z,79.55
2019-02-19T13:40:48.979Z,79.54
2019-02-19T13:43:19.167Z,79.52
2019-02-19T13:45:49.605Z,79.54
2019-02-19T13:48:19.825Z,79.58
2019-02-19T13:50:50.077Z,79.61
2019-02-19T13:53:57.533Z,79.82
2019-02-19T13:56:28.054Z,80.20
2019-02-19T13:58:58.597Z,80.41
2019-02-19T14:01:30.676Z,80.39
2019-02-19T14:04:02.273Z,80.24
2019-02-19T14:06:35.817Z,80.11
2019-02-19T14:09:09.006Z,80.15
2019-02-19T14:11:42.291Z,80.18
2019-02-19T14:14:32.826Z,80.14
2019-02-19T14:17:06.581Z,80.10
2019-02-19T14:19:59.945Z,80.13
2019-02-19T14:22:58.349Z,80.18
2019-02-19T14:25:49.777Z,80.18
2019-02-19T14:28:44.601Z,79.97
2019-02-19T14:31:38.368Z,79.67
2019-02-19T14:34:26.013Z,79.40
2019-02-19T14:37:18.543Z,79.35
2019-02-19T14:40:10.148Z,79.21
2019-02-19T14:43:01.841Z,79.15
2019-02-19T14:45:47.523Z,78.97
2019-02-19T14:48:35.041Z,78.92
2019-02-19T14:51:24.130Z,78.87
2019-02-19T14:54:12.055Z,78.84
2019-02-19T14:57:07.304Z,78.82
2019-02-19T14:59:59.001Z,78.65
2019-02-19T15:02:46.942Z,78.60
2019-02-19T15:05:34.384Z,78.47
2019-02-19T15:08:23.410Z,78.51
2019-02-19T15:11:15.646Z,78.44
2019-02-19T15:14:09.887Z,78.45
2019-02-19T15:17:01.668Z,78.46
2019-02-19T15:19:41.862Z,77.52
2019-02-19T15:22:43.147Z,77.79
2019-02-19T15:25:39.871Z,77.91
2019-02-19T15:28:27.478Z,77.92
2019-02-19T15:31:15.063Z,77.84
2019-02-19T15:34:03.041Z,77.80
2019-02-19T15:36:50.771Z,77.75
2019-02-19T15:39:39.807Z,77.79
2019-02-19T15:42:21.299Z,77.81
2019-02-19T15:45:19.627Z,76.95
2019-02-19T15:48:07.311Z,77.22
2019-02-19T15:50:54.833Z,77.29
2019-02-19T15:53:47.086Z,77.38
2019-02-19T15:56:34.675Z,77.39
2019-02-19T15:59:22.296Z,77.38
2019-02-19T16:02:11.369Z,77.44
2019-02-19T16:04:47.906Z,77.46
2019-02-19T16:07:24.731Z,77.45
2019-02-19T16:09:59.998Z,77.46
2019-02-19T16:12:48.427Z,77.45
2019-02-19T16:15:27.416Z,77.44
2019-02-19T16:18:19.399Z,77.47
2019-02-19T16:21:17.248Z,77.47
2019-02-19T16:24:05.200Z,77.55
2019-02-19T16:27:07.139Z,77.59
2019-02-19T16:29:54.868Z,77.59
2019-02-19T16:32:47.353Z,77.63
2019-02-19T16:35:27.310Z,77.65
2019-02-19T16:38:09.694Z,77.67
2019-02-19T16:40:57.521Z,77.70
2019-02-19T16:43:57.934Z,77.70
2019-02-19T16:47:05.553Z,77.67
2019-02-19T16:50:06.920Z,77.72
2019-02-19T16:52:41.478Z,77.77
2019-02-19T16:55:32.837Z,77.87
2019-02-19T16:58:14.885Z,77.86
2019-02-19T17:01:12.951Z,77.84
2019-02-19T17:03:53.365Z,77.80
2019-02-19T17:06:46.037Z,77.82
2019-02-19T17:09:27.964Z,77.86
2019-02-19T17:12:08.966Z,77.92
2019-02-19T17:14:58.178Z,77.94
2019-02-19T17:17:51.679Z,77.96
2019-02-19T17:20:43.736Z,77.97
2019-02-19T17:23:45.033Z,78.02
2019-02-19T17:26:33.720Z,78.02
2019-02-19T17:29:23.163Z,78.03
2019-02-19T17:32:18.282Z,78.03
2019-02-19T17:34:58.340Z,78.01
2019-02-19T17:37:44.161Z,77.97
2019-02-19T17:40:19.804Z,77.97
2019-02-19T17:43:04.442Z,77.99
2019-02-19T17:46:07.356Z,77.99
2019-02-19T17:48:43.151Z,77.97
2019-02-19T17:51:35.279Z,78.04
2019-02-19T17:54:43.734Z,78.02
2019-02-19T17:57:31.437Z,78.02
2019-02-19T18:00:32.764Z,78.07
2019-02-19T18:03:26.881Z,78.09
2019-02-19T18:06:05.289Z,78.11
2019-02-19T18:08:42.445Z,78.08
2019-02-19T18:11:30.105Z,78.09
2019-02-19T18:14:19.441Z,78.10
2019-02-19T18:17:11.694Z,78.12
2019-02-19T18:19:43.480Z,78.19
2019-02-19T18:22:14.072Z,78.16
2019-02-19T18:24:44.669Z,78.17
2019-02-19T18:27:15.100Z,78.16
2019-02-19T18:29:45.861Z,78.12
2019-02-19T18:32:20.206Z,78.18
2019-02-19T18:34:50.854Z,78.21
2019-02-19T18:37:21.388Z,78.25
2019-02-19T18:39:52.002Z,78.28
2019-02-19T18:42:24.386Z,78.24
2019-02-19T18:44:56.824Z,78.24
2019-02-19T18:47:27.453Z,78.31
2019-02-19T18:49:58.043Z,78.33
2019-02-19T18:52:28.756Z,78.34
2019-02-19T18:54:59.199Z,78.38
2019-02-19T18:57:29.805Z,78.36
2019-02-19T19:00:00.601Z,78.36
2019-02-19T19:02:31.070Z,78.34
2019-02-19T19:05:01.566Z,78.36
2019-02-19T19:07:32.267Z,78.36
2019-02-19T19:10:02.811Z,78.37
2019-02-19T19:12:33.189Z,78.37
2019-02-19T19:15:04.270Z,78.38
2019-02-19T19:17:35.053Z,78.39
2019-02-19T19:20:05.995Z,78.41
2019-02-19T19:22:36.548Z,78.43
2019-02-19T19:25:07.189Z,78.46
2019-02-19T19:27:37.804Z,78.44
2019-02-19T19:30:10.667Z,78.47
2019-02-19T19:32:41.197Z,78.55
2019-02-19T19:35:12.118Z,78.54
2019-02-19T19:37:42.796Z,78.53
2019-02-19T19:40:13.275Z,78.53
2019-02-19T19:42:43.826Z,78.55
2019-02-19T19:45:14.662Z,78.51
2019-02-19T19:47:45.236Z,78.51
2019-02-19T19:50:15.728Z,78.48
2019-02-19T19:52:46.548Z,78.48
2019-02-19T19:55:21.226Z,78.45
2019-02-19T19:57:51.683Z,78.50
2019-02-19T20:00:22.252Z,78.54
2019-02-19T20:02:53.785Z,78.52
2019-02-19T20:05:24.334Z,78.55
2019-02-19T20:07:55.000Z,78.56
2019-02-19T20:10:25.667Z,78.57
2019-02-19T20:12:56.248Z,78.56
2019-02-19T20:15:26.960Z,78.58
2019-02-19T20:17:57.576Z,78.60
2019-02-19T20:20:28.222Z,78.55
2019-02-19T20:22:58.875Z,78.61
2019-02-19T20:25:31.089Z,78.63
2019-02-19T20:28:01.720Z,78.64
2019-02-19T20:30:33.109Z,78.68
2019-02-19T20:33:03.735Z,78.69
2019-02-19T20:35:34.365Z,78.69
2019-02-19T20:38:05.008Z,78.69
2019-02-19T20:40:35.834Z,78.67
2019-02-19T20:43:07.037Z,78.70
2019-02-19T20:45:37.517Z,78.72
2019-02-19T20:48:08.033Z,78.72
2019-02-19T20:50:38.616Z,78.72
2019-02-19T20:53:09.113Z,78.77
2019-02-19T20:55:39.791Z,78.81
2019-02-19T21:00:53.354Z,78.80
2019-02-19T21:03:26.373Z,78.86
2019-02-19T21:05:56.958Z,78.91
2019-02-19T21:08:27.399Z,78.95
2019-02-19T21:10:57.926Z,79.04
2019-02-19T21:13:28.664Z,79.08
2019-02-19T21:15:59.207Z,79.08
2019-02-19T21:18:29.724Z,79.12
2019-02-19T21:21:00.294Z,79.17
2019-02-19T21:23:30.874Z,79.22
2019-02-19T21:26:01.525Z,79.23
2019-02-19T21:28:32.052Z,79.34
2019-02-19T21:31:05.451Z,79.42
2019-02-19T21:33:38.151Z,79.58
2019-02-19T21:36:08.962Z,79.71
2019-02-19T21:38:39.855Z,79.73
2019-02-19T21:41:10.306Z,79.82
2019-02-19T21:43:41.036Z,79.89
2019-02-19T21:46:11.848Z,80.05
2019-02-19T21:48:47.990Z,80.19
2019-02-19T21:51:16.441Z,80.25
2019-02-19T21:53:47.367Z,80.39
2019-02-19T21:56:17.736Z,80.52
2019-02-19T21:58:47.901Z,80.50
2019-02-19T22:01:18.206Z,80.43
2019-02-19T22:03:51.854Z,80.38
2019-02-19T22:06:21.985Z,80.34
2019-02-19T22:08:52.325Z,80.33
2019-02-19T22:11:22.513Z,80.27
2019-02-19T22:13:53.124Z,80.27
2019-02-19T22:16:27.588Z,80.32
2019-02-19T22:18:57.751Z,80.33
2019-02-19T22:21:36.093Z,80.42
2019-02-19T22:24:07.162Z,80.43
2019-02-19T22:26:37.233Z,80.48
2019-02-19T22:29:07.501Z,80.45
2019-02-19T22:31:38.815Z,80.45
2019-02-19T22:34:09.750Z,80.54
2019-02-19T22:36:39.994Z,80.60
2019-02-19T22:39:10.365Z,80.63
2019-02-19T22:41:40.524Z,80.69
2019-02-19T22:44:10.819Z,80.70
2019-02-19T22:46:41.274Z,80.79
2019-02-19T22:49:11.532Z,80.78
2019-02-19T22:51:41.797Z,80.87
2019-02-19T22:54:21.166Z,80.89
2019-02-19T22:56:51.484Z,80.93
2019-02-19T22:59:22.082Z,80.97
2019-02-19T23:01:58.423Z,80.96
2019-02-19T23:04:29.158Z,80.96
2019-02-19T23:07:02.592Z,80.98
2019-02-19T23:09:32.855Z,81.03
2019-02-19T23:12:03.039Z,81.11
2019-02-19T23:14:33.448Z,81.16
2019-02-19T23:17:03.614Z,81.24
2019-02-19T23:19:33.955Z,81.32
2019-02-19T23:22:04.132Z,81.30
2019-02-19T23:24:34.364Z,81.43
2019-02-19T23:27:04.682Z,81.50
2019-02-19T23:29:35.025Z,81.62
2019-02-19T23:32:05.237Z,81.63
2019-02-19T23:34:35.480Z,81.58
2019-02-19T23:37:18.682Z,81.51
2019-02-19T23:39:48.902Z,81.49
2019-02-19T23:42:19.060Z,81.50
2019-02-19T23:44:49.259Z,81.52
2019-02-19T23:47:19.432Z,81.49
2019-02-19T23:49:49.632Z,81.49
2019-02-19T23:52:19.990Z,81.45
2019-02-19T23:54:50.140Z,81.46
2019-02-19T23:57:20.283Z,81.46
2019-02-19T23:59:50.518Z,81.45
